Time;durP1;ratioP1;P1;durP2;ratioP2;P2;SDS_P1;SDS_P2;PMS_P1;PMS_P2;Temp;Humidity;BMP_temperature;BMP_pressure;BME280_temperature;BME280_humidity;BME280_pressure;Samples;Min_cycle;Max_cycle;Signal;HPM_P1;HPM_P2
2023/09/26 10:24:08;;;;;;;5.80;2.53;;;30.70;1.00;;;;;;5257330;27;20406;-66
2023/09/26 10:26:44;;;;;;;4.28;2.78;;;30.80;99.90;;;;;;5192163;28;93071;-67
2023/09/26 10:29:23;;;;;;;8.32;2.63;;;31.30;65.20;;;;;;5195423;28;20333;-67
2023/09/26 10:32:07;;;;;;;5.10;2.38;;;30.40;1.00;;;;;;5210919;28;20029;-65
2023/09/26 10:34:39;;;;;;;3.33;2.30;;;30.40;1.00;;;;;;5194757;28;20337;-65
2023/09/26 10:37:21;;;;;;;6.82;2.83;;;30.50;1.00;;;;;;5231609;28;20075;-66
2023/09/26 10:39:53;;;;;;;4.70;2.50;;;31.10;1.00;;;;;;5211813;28;20029;-67
2023/09/26 10:42:28;;;;;;;4.95;2.67;;;31.70;1.00;;;;;;5193576;28;20048;-68
2023/09/26 10:45:02;;;;;;;5.13;2.65;;;31.70;1.00;;;;;;5184019;28;20302;-68
2023/09/26 10:47:36;;;;;;;;;;;32.40;1.00;;;;;;5176858;28;20247;-66
2023/09/26 10:50:13;;;;;;;7.20;2.85;;;32.00;1.00;;;;;;5213897;28;19923;-67
2023/09/26 10:52:48;;;;;;;6.90;3.03;;;31.50;1.00;;;;;;5205726;28;20040;-65
2023/09/26 10:55:20;;;;;;;2.53;2.33;;;32.50;1.00;;;;;;5193760;28;20040;-69
2023/09/26 10:57:55;;;;;;;5.93;2.53;;;32.60;1.00;;;;;;5209754;28;20135;-67
2023/09/26 11:00:27;;;;;;;3.67;2.75;;;32.00;1.00;;;;;;5201948;28;20037;-67
2023/09/26 11:03:04;;;;;;;3.05;2.50;;;32.40;1.00;;;;;;5172273;28;20041;-70
2023/09/26 11:05:36;;;;;;;5.90;2.60;;;33.40;99.90;;;;;;5199452;28;20326;-66
2023/09/26 11:08:08;;;;;;;4.55;2.58;;;34.40;99.90;;;;;;5212492;28;20025;-67
2023/09/26 11:10:45;;;;;;;4.63;2.63;;;34.20;99.90;;;;;;5172232;28;20041;-66
2023/09/26 11:13:19;;;;;;;3.28;2.40;;;33.80;99.90;;;;;;5209590;28;20047;-66
2023/09/26 11:15:51;;;;;;;;;;;33.80;99.90;;;;;;5206189;28;20056;-70
2023/09/26 11:18:24;;;;;;;7.70;2.58;;;34.60;99.90;;;;;;5208408;28;20195;-64
2023/09/26 11:20:55;;;;;;;3.83;2.67;;;34.30;99.90;;;;;;5193627;28;20042;-67
2023/09/26 11:23:40;;;;;;;5.78;2.72;;;33.50;63.60;;;;;;5204522;28;20037;-66
2023/09/26 11:26:15;;;;;;;5.25;2.75;;;33.70;99.90;;;;;;5225977;28;20055;-69
2023/09/26 11:28:50;;;;;;;5.57;2.70;;;33.40;99.90;;;;;;5206806;28;21087;-70
2023/09/26 11:31:24;;;;;;;6.30;2.80;;;33.90;93.80;;;;;;5220127;28;20033;-69
2023/09/26 11:33:57;;;;;;;;;;;35.10;1.00;;;;;;5203609;28;20436;-65
2023/09/26 11:36:29;;;;;;;3.20;2.33;;;35.70;1.00;;;;;;5210345;28;20137;-66
2023/09/26 11:39:01;;;;;;;4.68;2.80;;;35.30;1.00;;;;;;5163888;28;20509;-67
2023/09/26 11:41:32;;;;;;;3.28;2.65;;;34.80;1.00;;;;;;5183154;28;20040;-65
2023/09/26 11:44:14;;;;;;;3.90;3.03;;;34.40;1.00;;;;;;5192726;28;20064;-69
2023/09/26 11:46:49;;;;;;;6.65;2.65;;;33.40;1.00;;;;;;5192078;28;20037;-68
2023/09/26 11:49:24;;;;;;;9.23;2.97;;;32.70;1.00;;;;;;5182631;28;20262;-67
2023/09/26 11:51:59;;;;;;;5.72;2.85;;;33.10;1.00;;;;;;5197811;28;20371;-67
2023/09/26 11:54:36;;;;;;;5.80;2.85;;;32.20;1.00;;;;;;5180878;28;20039;-65
2023/09/26 11:57:12;;;;;;;3.72;2.60;;;32.20;1.00;;;;;;5159611;28;20371;-66
2023/09/26 11:59:44;;;;;;;5.07;2.70;;;32.50;1.00;;;;;;5174094;28;20052;-70
2023/09/26 12:02:15;;;;;;;5.57;2.70;;;32.80;1.00;;;;;;5190876;28;20361;-67
2023/09/26 12:04:46;;;;;;;3.03;2.60;;;32.90;1.00;;;;;;5195498;28;20039;-65
2023/09/26 12:07:18;;;;;;;4.72;3.08;;;31.20;1.00;;;;;;5161040;28;20258;-69
2023/09/26 12:09:51;;;;;;;6.00;3.08;;;31.00;1.00;;;;;;5211604;28;20049;-68
2023/09/26 12:12:23;;;;;;;3.77;2.63;;;31.70;1.00;;;;;;5189294;28;20872;-65
2023/09/26 12:15:24;;;;;;;5.03;2.95;;;32.90;1.00;;;;;;5179461;28;20279;-67
2023/09/26 12:17:56;;;;;;;4.50;2.70;;;32.20;1.00;;;;;;5198786;28;20025;-69
2023/09/26 12:20:28;;;;;;;5.40;2.60;;;33.00;1.00;;;;;;5213619;28;20049;-68
2023/09/26 12:23:04;;;;;;;3.47;2.65;;;33.70;1.00;;;;;;5196473;28;20067;-68
2023/09/26 12:25:38;;;;;;;3.17;2.88;;;33.50;1.00;;;;;;5178810;28;20046;-68
2023/09/26 12:28:10;;;;;;;;;;;33.80;1.00;;;;;;5188306;28;20048;-70
2023/09/26 12:30:41;;;;;;;4.78;2.30;;;33.50;1.00;;;;;;5178402;28;19917;-71
2023/09/26 12:33:13;;;;;;;2.78;2.40;;;33.80;1.00;;;;;;5162554;28;20234;-69
2023/09/26 12:35:44;;;;;;;4.05;2.80;;;33.70;1.00;;;;;;5178866;28;20354;-68
2023/09/26 12:38:17;;;;;;;5.05;2.50;;;33.90;1.00;;;;;;5179858;28;20299;-70
2023/09/26 12:40:49;;;;;;;4.32;2.78;;;33.50;1.00;;;;;;5198220;28;20032;-67
2023/09/26 12:43:21;;;;;;;5.75;2.83;;;34.70;1.00;;;;;;5190609;28;20258;-70
2023/09/26 12:45:52;;;;;;;3.05;2.55;;;34.70;1.00;;;;;;5190437;28;20045;-67
2023/09/26 12:48:24;;;;;;;5.22;2.67;;;34.10;1.00;;;;;;5198284;28;20029;-65
2023/09/26 12:50:55;;;;;;;3.85;2.80;;;34.40;1.00;;;;;;5198134;28;20338;-69
2023/09/26 12:53:27;;;;;;;5.78;2.63;;;34.00;1.00;;;;;;5162793;28;20040;-68
2023/09/26 12:55:59;;;;;;;4.97;2.47;;;33.30;1.00;;;;;;5194569;28;20044;-70
2023/09/26 12:58:32;;;;;;;6.05;3.33;;;33.30;1.00;;;;;;5188689;28;20314;-70
2023/09/26 13:01:06;;;;;;;3.50;2.80;;;34.20;1.00;;;;;;5171878;28;20057;-71
2023/09/26 13:03:39;;;;;;;3.60;2.65;;;34.30;1.00;;;;;;5177936;28;20048;-65
2023/09/26 13:06:11;;;;;;;6.22;2.97;;;35.00;1.00;;;;;;5178692;28;20047;-71
2023/09/26 13:08:42;;;;;;;3.50;2.35;;;34.50;1.00;;;;;;5163786;28;20050;-70
2023/09/26 13:11:14;;;;;;;6.35;2.60;;;34.60;99.90;;;;;;5197369;28;20024;-68
2023/09/26 13:13:45;;;;;;;3.58;2.45;;;34.30;99.90;;;;;;5170687;28;20080;-70
2023/09/26 13:16:20;;;;;;;6.68;2.67;;;34.10;99.90;;;;;;5195998;28;20041;-68
2023/09/26 13:18:52;;;;;;;4.20;2.40;;;33.40;99.90;;;;;;5164059;28;20072;-71
2023/09/26 13:21:23;;;;;;;4.13;2.40;;;33.50;99.90;;;;;;5193951;28;20246;-73
2023/09/26 13:23:57;;;;;;;3.75;2.88;;;33.50;99.90;;;;;;5181017;28;20045;-69
2023/09/26 13:26:34;;;;;;;6.43;2.42;;;33.90;99.90;;;;;;5209305;28;20033;-69
2023/09/26 13:29:06;;;;;;;2.97;2.60;;;33.30;99.90;;;;;;5193784;28;20045;-70
2023/09/26 13:31:46;;;;;;;4.10;2.80;;;33.30;99.90;;;;;;5191481;28;20038;-69
2023/09/26 13:34:20;;;;;;;6.90;2.33;;;34.00;99.90;;;;;;5179230;28;20053;-72
2023/09/26 13:36:51;;;;;;;5.07;2.75;;;33.70;99.90;;;;;;5194798;28;20611;-70
2023/09/26 13:39:23;;;;;;;5.88;2.60;;;33.60;99.90;;;;;;5192682;28;20038;-66
2023/09/26 13:42:00;;;;;;;3.55;2.97;;;32.50;99.90;;;;;;5195456;28;20318;-68
2023/09/26 13:44:31;;;;;;;8.98;3.53;;;32.80;99.90;;;;;;5195777;28;20052;-69
2023/09/26 13:47:03;;;;;;;4.97;2.90;;;32.40;99.90;;;;;;5200625;28;20218;-63
2023/09/26 13:49:36;;;;;;;4.70;2.67;;;32.90;99.90;;;;;;5204249;28;20119;-74
2023/09/26 13:52:08;;;;;;;4.57;2.95;;;33.30;99.90;;;;;;5204389;28;20049;-63
2023/09/26 13:54:43;;;;;;;4.40;2.70;;;33.20;99.90;;;;;;5203609;28;20056;-63
2023/09/26 13:57:16;;;;;;;4.47;2.30;;;33.30;99.90;;;;;;5194514;28;20051;-72
2023/09/26 13:59:52;;;;;;;4.00;2.80;;;32.80;99.90;;;;;;5195712;28;20293;-66
2023/09/26 14:02:24;;;;;;;4.20;2.90;;;32.50;99.90;;;;;;5151319;28;20046;-68
2023/09/26 14:04:55;;;;;;;4.30;2.88;;;31.90;99.90;;;;;;5209942;28;20045;-71
2023/09/26 14:07:28;;;;;;;4.88;3.22;;;32.00;99.90;;;;;;5195689;28;20040;-67
2023/09/26 14:10:02;;;;;;;2.95;2.53;;;31.60;99.90;;;;;;5193682;28;20233;-69
2023/09/26 14:12:36;;;;;;;5.00;3.08;;;31.10;99.90;;;;;;5159831;28;20043;-71
2023/09/26 14:15:11;;;;;;;8.30;3.03;;;30.40;99.90;;;;;;5174784;28;20040;-69
2023/09/26 14:17:45;;;;;;;4.47;2.85;;;30.80;99.90;;;;;;5167654;28;20224;-66
2023/09/26 14:20:17;;;;;;;6.75;2.90;;;31.00;99.90;;;;;;5162642;28;20036;-66
2023/09/26 14:22:49;;;;;;;4.68;2.60;;;31.40;99.90;;;;;;5193660;28;20059;-70
2023/09/26 14:25:20;;;;;;;3.47;2.65;;;31.80;99.90;;;;;;5188506;28;20079;-65
2023/09/26 14:28:03;;;;;;;5.82;2.95;;;31.90;99.90;;;;;;5156991;28;20263;-70
2023/09/26 14:30:37;;;;;;;2.67;2.40;;;31.90;99.90;;;;;;5174236;28;20047;-69
2023/09/26 14:33:09;;;;;;;;;;;31.30;99.90;;;;;;5164310;28;20053;-65
2023/09/26 14:35:45;;;;;;;5.63;2.63;;;31.40;99.90;;;;;;5171723;28;19925;-69
2023/09/26 14:38:16;;;;;;;4.60;2.67;;;30.60;99.90;;;;;;5195639;28;20042;-70
2023/09/26 14:40:49;;;;;;;2.65;2.42;;;30.10;99.90;;;;;;5193337;28;20051;-67
2023/09/26 14:43:23;;;;;;;5.05;2.75;;;29.80;99.90;;;;;;5158447;28;20056;-70
2023/09/26 14:45:57;;;;;;;6.20;2.72;;;29.40;99.90;;;;;;5179424;28;20029;-69
2023/09/26 14:48:31;;;;;;;5.05;2.70;;;29.60;99.90;;;;;;5179213;28;20037;-68
2023/09/26 14:51:06;;;;;;;;;;;30.10;99.90;;;;;;5163204;28;20048;-66
2023/09/26 14:53:38;;;;;;;4.15;2.65;;;30.30;99.90;;;;;;5194301;28;19948;-67
2023/09/26 14:56:16;;;;;;;13.00;4.05;;;30.30;99.90;;;;;;5196642;28;20042;-70
2023/09/26 14:58:51;;;;;;;7.75;2.50;;;30.00;99.90;;;;;;5161136;28;20042;-71
2023/09/26 15:01:23;;;;;;;6.05;3.25;;;29.90;99.90;;;;;;5176191;28;20045;-68
2023/09/26 15:03:57;;;;;;;4.13;2.88;;;29.20;99.90;;;;;;5191942;28;20033;-69
2023/09/26 15:06:29;;;;;;;3.95;2.50;;;28.80;99.90;;;;;;5163668;28;20042;-68
2023/09/26 15:09:06;;;;;;;4.25;2.72;;;28.60;99.90;;;;;;5147740;28;20049;-67
2023/09/26 15:11:42;;;;;;;10.57;3.00;;;28.30;99.90;;;;;;5181813;28;20059;-68
2023/09/26 15:14:16;;;;;;;7.07;2.90;;;28.50;99.90;;;;;;5212954;28;20606;-69
2023/09/26 15:16:48;;;;;;;5.30;3.13;;;28.70;99.90;;;;;;5140439;28;20056;-73
2023/09/26 15:19:20;;;;;;;4.95;2.40;;;28.20;99.90;;;;;;5196622;28;20539;-72
2023/09/26 15:21:54;;;;;;;4.03;2.67;;;27.80;99.90;;;;;;5197528;28;20037;-70
2023/09/26 15:24:26;;;;;;;4.25;2.85;;;27.60;99.90;;;;;;5178700;28;20055;-67
2023/09/26 15:27:07;;;;;;;3.92;3.17;;;27.20;99.90;;;;;;5196354;28;20269;-68
2023/09/26 15:29:39;;;;;;;4.07;2.92;;;26.70;99.90;;;;;;5181459;28;20208;-67
2023/09/26 15:32:13;;;;;;;7.38;2.60;;;26.40;99.90;;;;;;5193842;28;20425;-71
2023/09/26 15:34:48;;;;;;;3.33;2.80;;;26.10;99.90;;;;;;5180337;28;20313;-69
2023/09/26 15:37:21;;;;;;;5.22;3.28;;;25.80;99.90;;;;;;5179631;28;20036;-70
2023/09/26 15:39:52;;;;;;;6.82;3.08;;;25.50;99.90;;;;;;5186919;28;20052;-68
2023/09/26 15:42:24;;;;;;;5.35;3.03;;;25.20;99.90;;;;;;5178239;28;20334;-67
2023/09/26 15:44:55;;;;;;;3.85;2.97;;;25.10;99.90;;;;;;5195406;28;20033;-66
2023/09/26 15:47:27;;;;;;;5.63;3.50;;;24.90;99.90;;;;;;5194314;28;20421;-68
2023/09/26 15:49:58;;;;;;;5.20;2.85;;;24.80;99.90;;;;;;5198110;28;20252;-65
2023/09/26 15:52:30;;;;;;;6.68;3.63;;;24.70;1.00;;;;;;5194685;28;20372;-68
2023/09/26 15:55:01;;;;;;;5.90;3.72;;;24.60;1.00;;;;;;5172233;28;20670;-68
2023/09/26 15:57:37;;;;;;;5.22;3.53;;;24.50;1.00;;;;;;5192439;28;20362;-65
2023/09/26 16:00:11;;;;;;;5.00;2.92;;;24.40;1.00;;;;;;5186039;28;20335;-73
2023/09/26 16:02:42;;;;;;;;;;;24.30;1.00;;;;;;5194528;28;20044;-67
2023/09/26 16:05:14;;;;;;;5.93;3.95;;;24.30;1.00;;;;;;5197897;28;20177;-66
2023/09/26 16:07:46;;;;;;;7.22;3.47;;;24.20;9.10;;;;;;5147584;28;20049;-68
2023/09/26 16:10:20;;;;;;;5.43;3.53;;;24.10;99.90;;;;;;5183862;28;20038;-69
2023/09/26 16:12:57;;;;;;;4.35;3.55;;;24.10;1.00;;;;;;5164631;28;20050;-67
2023/09/26 16:15:29;;;;;;;3.92;3.17;;;23.90;1.00;;;;;;5184871;28;20398;-65
2023/09/26 16:18:01;;;;;;;5.90;3.50;;;23.80;99.90;;;;;;5195178;28;20485;-67
2023/09/26 16:20:36;;;;;;;6.05;3.80;;;23.80;1.00;;;;;;5191549;28;20066;-65
2023/09/26 16:23:09;;;;;;;5.10;3.60;;;23.70;1.00;;;;;;5195924;28;20026;-68
2023/09/26 16:25:48;;;;;;;6.32;3.95;;;23.60;99.90;;;;;;5193112;28;20306;-67
2023/09/26 16:28:22;;;;;;;6.10;3.65;;;23.50;1.00;;;;;;5181643;28;20045;-69
2023/09/26 16:30:56;;;;;;;7.28;4.00;;;23.40;1.00;;;;;;5191430;28;20049;-65
2023/09/26 16:33:28;;;;;;;;;;;23.30;39.00;;;;;;5188181;28;20041;-67
2023/09/26 16:36:15;;;;;;;3.80;3.33;;;23.20;99.90;;;;;;5196083;28;20209;-64
2023/09/26 16:38:52;;;;;;;5.38;3.40;;;23.10;1.00;;;;;;5193646;28;20068;-66
2023/09/26 16:41:23;;;;;;;5.03;3.67;;;23.00;1.00;;;;;;5173216;28;20060;-69
2023/09/26 16:43:58;;;;;;;8.15;3.97;;;23.00;54.50;;;;;;5188358;28;20047;-70
2023/09/26 16:46:29;;;;;;;5.53;3.92;;;22.90;99.90;;;;;;5191248;28;20037;-66
2023/09/26 16:49:04;;;;;;;5.60;4.45;;;22.80;99.90;;;;;;5209824;28;20037;-68
2023/09/26 16:51:38;;;;;;;5.45;3.55;;;22.70;1.00;;;;;;5211060;28;20068;-66
2023/09/26 16:54:14;;;;;;;5.65;4.28;;;22.50;1.00;;;;;;5177498;28;20052;-68
2023/09/26 16:56:49;;;;;;;8.18;3.88;;;22.50;1.00;;;;;;5195333;28;20053;-68
2023/09/26 16:59:20;;;;;;;12.00;4.32;;;22.40;1.00;;;;;;5193519;28;20408;-67
2023/09/26 17:01:54;;;;;;;4.57;4.00;;;22.30;99.90;;;;;;5193540;28;20041;-66
2023/09/26 17:04:33;;;;;;;6.15;4.32;;;22.30;99.90;;;;;;5193372;28;20040;-67
2023/09/26 17:07:04;;;;;;;7.70;4.47;;;22.20;99.90;;;;;;5180487;28;20253;-67
2023/09/26 17:09:40;;;;;;;6.53;4.70;;;22.00;99.90;;;;;;5196723;28;20100;-70
2023/09/26 17:12:15;;;;;;;9.30;6.10;;;21.90;99.90;;;;;;5191015;28;20294;-65
2023/09/26 17:14:46;;;;;;;10.20;5.30;;;21.90;99.90;;;;;;5193188;28;20250;-66
2023/09/26 17:17:18;;;;;;;6.82;5.40;;;21.80;1.00;;;;;;5194190;28;20033;-65
2023/09/26 17:19:49;;;;;;;12.00;5.68;;;21.70;1.00;;;;;;5196231;28;20024;-68
2023/09/26 17:22:24;;;;;;;8.82;6.25;;;21.70;1.00;;;;;;5193742;28;20162;-69
2023/09/26 17:24:58;;;;;;;6.57;5.13;;;21.60;1.00;;;;;;5193947;28;20041;-66
2023/09/26 17:27:30;;;;;;;7.32;5.13;;;21.60;1.00;;;;;;5159354;28;20051;-66
2023/09/26 17:30:06;;;;;;;7.85;4.82;;;21.60;1.00;;;;;;5143379;28;20042;-68
2023/09/26 17:32:42;;;;;;;8.52;4.65;;;21.50;1.00;;;;;;5147578;28;20046;-67
2023/09/26 17:35:14;;;;;;;6.05;5.45;;;21.40;1.00;;;;;;5177386;28;20310;-68
2023/09/26 17:37:45;;;;;;;7.05;5.05;;;21.30;1.00;;;;;;5185970;28;20033;-68
2023/09/26 17:40:17;;;;;;;8.80;6.45;;;21.30;1.00;;;;;;5189591;28;20063;-66
2023/09/26 17:42:48;;;;;;;13.77;6.43;;;21.20;1.00;;;;;;5186888;28;20025;-68
2023/09/26 17:45:22;;;;;;;6.72;5.28;;;21.00;1.00;;;;;;5150457;28;20352;-67
2023/09/26 17:47:53;;;;;;;7.03;4.88;;;20.80;1.00;;;;;;5154960;28;20371;-67
2023/09/26 17:50:24;;;;;;;8.63;4.63;;;20.70;1.00;;;;;;5188338;28;20330;-67
2023/09/26 17:52:56;;;;;;;5.22;4.65;;;20.60;1.00;;;;;;5189952;28;20029;-67
2023/09/26 17:55:28;;;;;;;6.55;4.65;;;20.60;1.00;;;;;;5185367;28;20230;-66
2023/09/26 17:58:02;;;;;;;9.18;4.90;;;20.50;1.00;;;;;;5190271;28;20025;-65
2023/09/26 18:00:33;;;;;;;6.25;4.50;;;20.50;1.00;;;;;;5147939;28;20045;-66
2023/09/26 18:03:05;;;;;;;6.43;4.90;;;20.40;1.00;;;;;;5185276;28;20387;-66
2023/09/26 18:05:36;;;;;;;6.97;4.50;;;20.40;1.00;;;;;;5190796;28;20318;-67
2023/09/26 18:08:08;;;;;;;5.68;4.57;;;20.30;1.00;;;;;;5193090;28;20060;-66
2023/09/26 18:10:39;;;;;;;7.63;4.78;;;20.20;8.30;;;;;;5190338;28;20030;-63
2023/09/26 18:13:13;;;;;;;6.63;4.40;;;20.20;17.10;;;;;;5187296;28;20038;-68
2023/09/26 18:15:49;;;;;;;6.25;5.00;;;20.10;59.80;;;;;;5187431;28;20068;-69
2023/09/26 18:18:22;;;;;;;6.55;5.10;;;20.10;19.00;;;;;;5167053;28;20043;-66
2023/09/26 18:20:53;;;;;;;7.45;4.80;;;20.00;77.20;;;;;;5199749;28;20234;-68
2023/09/26 18:23:26;;;;;;;5.78;4.60;;;19.90;99.90;;;;;;5192608;28;20307;-65
2023/09/26 18:25:57;;;;;;;6.25;4.80;;;19.90;99.90;;;;;;5206983;28;20050;-64
2023/09/26 18:28:34;;;;;;;6.10;4.78;;;19.80;99.90;;;;;;5180318;28;20226;-68
2023/09/26 18:31:06;;;;;;;8.85;5.38;;;19.70;99.90;;;;;;5175344;28;21764;-68
2023/09/26 18:33:43;;;;;;;6.05;4.38;;;19.60;99.90;;;;;;5184567;28;20266;-68
2023/09/26 18:36:14;;;;;;;10.15;4.70;;;19.60;99.90;;;;;;5192234;28;20210;-66
2023/09/26 18:38:46;;;;;;;9.35;5.47;;;19.50;99.90;;;;;;5188274;28;20025;-68
2023/09/26 18:41:17;;;;;;;6.35;5.20;;;19.50;99.90;;;;;;5186198;28;20341;-66
2023/09/26 18:43:50;;;;;;;11.30;6.53;;;19.50;99.90;;;;;;5180096;28;20040;-68
2023/09/26 18:46:22;;;;;;;8.85;6.43;;;19.40;99.90;;;;;;5151863;28;20037;-68
2023/09/26 18:48:56;;;;;;;8.27;6.07;;;19.30;99.90;;;;;;5192891;28;20033;-67
2023/09/26 18:51:35;;;;;;;7.28;5.80;;;19.20;99.90;;;;;;5197653;28;20055;-66
2023/09/26 18:54:09;;;;;;;7.55;5.45;;;19.20;99.90;;;;;;5192291;28;21079;-64
2023/09/26 18:56:47;;;;;;;8.27;6.13;;;19.20;99.90;;;;;;5159292;28;20365;-68
2023/09/26 18:59:18;;;;;;;12.52;6.22;;;19.20;99.90;;;;;;5156467;28;20049;-68
2023/09/26 19:01:52;;;;;;;12.60;6.75;;;19.10;99.90;;;;;;5150123;28;20084;-70
2023/09/26 19:04:27;;;;;;;;;;;19.10;99.90;;;;;;5173370;28;20041;-64
2023/09/26 19:07:01;;;;;;;9.90;6.15;;;19.00;99.90;;;;;;5207904;28;20217;-66
2023/09/26 19:09:35;;;;;;;8.13;5.95;;;18.80;99.90;;;;;;5159045;28;20040;-69
2023/09/26 19:12:07;;;;;;;11.27;8.68;;;18.70;99.90;;;;;;5157573;28;20048;-66
2023/09/26 19:14:38;;;;;;;15.40;8.85;;;18.70;99.90;;;;;;5176944;28;20043;-68
2023/09/26 19:17:10;;;;;;;10.38;8.05;;;18.60;99.90;;;;;;5149210;28;20050;-69
2023/09/26 19:19:46;;;;;;;12.38;6.97;;;18.60;99.90;;;;;;5148616;28;20046;-71
2023/09/26 19:22:20;;;;;;;11.10;7.07;;;18.60;99.90;;;;;;5174467;28;20056;-69
2023/09/26 19:24:52;;;;;;;10.10;7.13;;;18.60;99.90;;;;;;5191105;28;20065;-67
2023/09/26 19:27:23;;;;;;;9.60;7.30;;;18.60;99.90;;;;;;5173212;28;20026;-65
2023/09/26 19:29:55;;;;;;;17.13;7.53;;;18.60;99.90;;;;;;5194602;28;20048;-69
2023/09/26 19:32:31;;;;;;;10.50;6.40;;;18.60;99.90;;;;;;5191402;28;20026;-65
2023/09/26 19:35:03;;;;;;;12.98;7.28;;;18.60;99.90;;;;;;5160587;28;20050;-68
2023/09/26 19:37:34;;;;;;;11.07;7.40;;;18.60;99.90;;;;;;5164254;28;20038;-66
2023/09/26 19:40:09;;;;;;;9.98;7.38;;;18.70;99.90;;;;;;5190804;28;20051;-65
2023/09/26 19:42:43;;;;;;;8.55;6.53;;;18.70;99.90;;;;;;5177492;28;20234;-67
2023/09/26 19:45:15;;;;;;;;;;;18.70;99.90;;;;;;5190714;28;20038;-67
2023/09/26 19:47:47;;;;;;;7.22;5.57;;;18.70;99.90;;;;;;5192666;28;19916;-65
2023/09/26 19:50:21;;;;;;;9.70;5.93;;;18.70;99.90;;;;;;5151187;28;20056;-68
2023/09/26 19:52:52;;;;;;;9.32;6.80;;;18.70;99.90;;;;;;5152283;28;20049;-67
2023/09/26 19:55:24;;;;;;;8.98;6.45;;;18.70;99.90;;;;;;5173841;28;20044;-70
2023/09/26 19:57:58;;;;;;;9.10;6.72;;;18.70;99.90;;;;;;5191037;28;20044;-64
2023/09/26 20:00:29;;;;;;;9.88;7.25;;;18.80;99.90;;;;;;5150884;28;20250;-69
2023/09/26 20:03:03;;;;;;;9.63;6.40;;;18.70;99.90;;;;;;5163754;28;20345;-66
2023/09/26 20:05:35;;;;;;;9.02;6.50;;;18.70;99.90;;;;;;5173344;28;20041;-66
2023/09/26 20:08:11;;;;;;;12.85;6.95;;;18.80;99.90;;;;;;5184925;28;20277;-66
2023/09/26 20:10:48;;;;;;;12.00;7.03;;;18.90;99.90;;;;;;5175652;28;20044;-65
2023/09/26 20:13:22;;;;;;;10.40;6.95;;;19.00;99.90;;;;;;5190884;28;20032;-67
2023/09/26 20:15:54;;;;;;;8.75;6.15;;;19.10;99.90;;;;;;5192036;28;20493;-68
2023/09/26 20:18:25;;;;;;;8.40;6.47;;;19.10;99.90;;;;;;5174032;28;20040;-66
2023/09/26 20:20:57;;;;;;;23.65;7.22;;;19.10;99.90;;;;;;5189742;28;20040;-66
2023/09/26 20:23:31;;;;;;;7.88;6.43;;;19.10;99.90;;;;;;5189553;28;20514;-65
2023/09/26 20:26:10;;;;;;;8.10;6.43;;;19.10;99.90;;;;;;5158465;28;20258;-67
2023/09/26 20:28:44;;;;;;;8.88;6.50;;;19.10;99.90;;;;;;5163398;28;20037;-68
2023/09/26 20:31:19;;;;;;;9.60;6.57;;;19.20;99.90;;;;;;5154767;28;20034;-70
2023/09/26 20:33:50;;;;;;;11.27;7.60;;;19.20;99.90;;;;;;5180028;28;20455;-66
2023/09/26 20:36:22;;;;;;;7.20;6.13;;;19.10;99.90;;;;;;5188686;28;20029;-67
2023/09/26 20:38:53;;;;;;;10.25;6.80;;;19.10;99.90;;;;;;5188816;28;20048;-65
2023/09/26 20:41:25;;;;;;;10.73;6.95;;;19.00;99.90;;;;;;5186122;28;20041;-68
2023/09/26 20:43:56;;;;;;;9.50;5.88;;;18.90;99.90;;;;;;5192989;28;20338;-65
2023/09/26 20:46:28;;;;;;;10.20;6.85;;;18.80;99.90;;;;;;5193904;28;20036;-66
2023/09/26 20:49:02;;;;;;;8.43;7.13;;;18.60;99.90;;;;;;5213908;28;20044;-63
2023/09/26 20:51:33;;;;;;;10.63;6.90;;;18.60;99.90;;;;;;5181364;28;20460;-68
2023/09/26 20:54:05;;;;;;;9.60;6.40;;;18.40;99.90;;;;;;5181482;28;20055;-64
2023/09/26 20:56:39;;;;;;;9.45;6.88;;;18.20;99.90;;;;;;5167845;28;20052;-67
2023/09/26 20:59:15;;;;;;;8.60;6.63;;;18.20;99.90;;;;;;5157378;28;20255;-68
2023/09/26 21:01:48;;;;;;;12.48;6.63;;;18.10;99.90;;;;;;5210411;28;20068;-65
2023/09/26 21:04:20;;;;;;;8.60;6.67;;;18.00;99.90;;;;;;5182980;28;20049;-68
2023/09/26 21:06:55;;;;;;;9.75;6.85;;;18.00;99.90;;;;;;5178618;28;20075;-66
2023/09/26 21:09:27;;;;;;;7.82;6.10;;;18.00;99.90;;;;;;5182179;28;20032;-66
2023/09/26 21:12:00;;;;;;;10.75;6.82;;;18.00;99.90;;;;;;5180773;28;20319;-69
2023/09/26 21:14:31;;;;;;;12.50;6.78;;;17.90;99.90;;;;;;5190380;28;20033;-71
2023/09/26 21:17:03;;;;;;;8.27;6.43;;;17.70;99.90;;;;;;5197331;28;20029;-67
2023/09/26 21:19:34;;;;;;;15.13;7.28;;;17.60;99.90;;;;;;5199313;28;20033;-66
2023/09/26 21:22:08;;;;;;;8.88;7.25;;;17.50;99.90;;;;;;5182765;28;20038;-65
2023/09/26 21:24:40;;;;;;;9.30;7.32;;;17.40;99.90;;;;;;5181204;28;20448;-66
2023/09/26 21:27:17;;;;;;;9.32;7.43;;;17.40;99.90;;;;;;5147844;28;20029;-64
2023/09/26 21:29:52;;;;;;;10.80;6.85;;;17.30;99.90;;;;;;5184598;28;20060;-67
2023/09/26 21:32:29;;;;;;;7.95;6.78;;;17.10;99.90;;;;;;5164593;28;20037;-71
2023/09/26 21:35:02;;;;;;;13.77;7.53;;;17.10;99.90;;;;;;5179604;28;20033;-69
2023/09/26 21:37:36;;;;;;;10.52;7.28;;;17.10;99.90;;;;;;5178820;28;20040;-66
2023/09/26 21:40:12;;;;;;;11.10;7.57;;;17.00;99.90;;;;;;5179440;28;20043;-66
2023/09/26 21:42:45;;;;;;;11.18;7.93;;;17.00;99.90;;;;;;5179525;28;20036;-67
2023/09/26 21:45:20;;;;;;;13.63;7.03;;;17.00;99.90;;;;;;5179272;28;20486;-69
2023/09/26 21:47:51;;;;;;;;;;;16.90;99.90;;;;;;5180397;28;20057;-65
2023/09/26 21:50:23;;;;;;;8.80;6.53;;;16.90;99.90;;;;;;5197003;28;20377;-66
2023/09/26 21:52:54;;;;;;;14.65;7.57;;;16.90;99.90;;;;;;5195327;28;20033;-63
2023/09/26 21:55:35;;;;;;;9.70;8.15;;;16.90;99.90;;;;;;5192322;28;20040;-66
2023/09/26 21:58:06;;;;;;;11.68;8.60;;;16.90;99.90;;;;;;5198845;28;20051;-69
2023/09/26 22:00:38;;;;;;;12.85;7.45;;;16.90;99.90;;;;;;5179531;28;20049;-66
2023/09/26 22:03:12;;;;;;;11.60;7.72;;;16.80;99.90;;;;;;5140827;28;20080;-66
2023/09/26 22:05:47;;;;;;;13.90;9.57;;;16.70;99.90;;;;;;5201277;28;20037;-66
2023/09/26 22:08:19;;;;;;;12.13;7.70;;;16.70;99.90;;;;;;5178690;28;20042;-65
2023/09/26 22:10:50;;;;;;;16.08;7.80;;;16.70;99.90;;;;;;5178927;28;20223;-68
2023/09/26 22:13:26;;;;;;;10.30;7.25;;;16.70;99.90;;;;;;5176040;28;20053;-65
2023/09/26 22:16:02;;;;;;;9.63;7.25;;;16.60;99.90;;;;;;5192709;28;20047;-68
2023/09/26 22:18:36;;;;;;;10.32;7.80;;;16.60;99.90;;;;;;5159212;28;20055;-64
2023/09/26 22:21:09;;;;;;;;;;;16.50;99.90;;;;;;5178712;28;20037;-69
2023/09/26 22:23:41;;;;;;;13.13;8.90;;;16.40;99.90;;;;;;5183355;28;19923;-70
2023/09/26 22:26:20;;;;;;;12.52;8.32;;;16.30;99.90;;;;;;5194856;28;20030;-68
2023/09/26 22:28:53;;;;;;;13.35;9.95;;;16.30;99.90;;;;;;5180322;28;20042;-69
2023/09/26 22:31:25;;;;;;;11.32;8.60;;;16.20;99.90;;;;;;5163510;28;20046;-66
2023/09/26 22:33:56;;;;;;;17.48;9.73;;;16.20;99.90;;;;;;5157144;28;20052;-66
2023/09/26 22:36:30;;;;;;;9.50;6.88;;;16.10;99.90;;;;;;5194219;28;20069;-65
2023/09/26 22:39:07;;;;;;;12.77;7.75;;;16.10;99.90;;;;;;5166881;28;20040;-67
2023/09/26 22:41:38;;;;;;;12.25;8.60;;;16.00;99.90;;;;;;5182495;28;20048;-68
2023/09/26 22:44:10;;;;;;;12.85;9.43;;;16.00;99.90;;;;;;5200083;28;20037;-69
2023/09/26 22:46:42;;;;;;;13.30;8.25;;;16.00;99.90;;;;;;5197531;28;20052;-66
2023/09/26 22:49:13;;;;;;;12.98;9.02;;;16.00;99.90;;;;;;5195586;28;20045;-66
2023/09/26 22:51:44;;;;;;;11.95;9.45;;;16.20;99.90;;;;;;5181657;28;20033;-65
2023/09/26 22:54:16;;;;;;;13.43;8.88;;;16.20;99.90;;;;;;5198616;28;20032;-64
2023/09/26 22:56:50;;;;;;;11.07;7.93;;;16.20;99.90;;;;;;5198007;28;20061;-66
2023/09/26 22:59:31;;;;;;;13.50;8.13;;;16.10;99.90;;;;;;5199334;28;20025;-68
2023/09/26 23:02:04;;;;;;;10.10;6.93;;;16.00;99.90;;;;;;5173944;28;20064;-69
2023/09/26 23:04:38;;;;;;;10.20;7.50;;;16.00;99.90;;;;;;5195123;28;20658;-67
2023/09/26 23:07:10;;;;;;;10.40;7.30;;;15.90;99.90;;;;;;5194804;28;20048;-68
2023/09/26 23:09:46;;;;;;;9.35;7.10;;;15.90;99.90;;;;;;5162953;28;20460;-69
2023/09/26 23:12:18;;;;;;;9.20;6.90;;;15.90;99.90;;;;;;5209913;28;20073;-66
2023/09/26 23:14:52;;;;;;;11.43;7.40;;;15.80;99.90;;;;;;5198790;28;20041;-68
2023/09/26 23:17:29;;;;;;;9.27;7.15;;;15.80;99.90;;;;;;5192718;28;20035;-65
2023/09/26 23:20:08;;;;;;;11.63;7.90;;;15.80;99.90;;;;;;5198801;28;20487;-65
2023/09/26 23:22:45;;;;;;;11.90;8.25;;;15.80;99.90;;;;;;5182675;28;20222;-65
2023/09/26 23:25:17;;;;;;;10.80;7.65;;;15.80;99.90;;;;;;5152867;28;20283;-66
2023/09/26 23:27:51;;;;;;;8.40;7.47;;;15.80;99.90;;;;;;5199667;28;20056;-65
2023/09/26 23:30:23;;;;;;;10.98;7.80;;;15.70;99.90;;;;;;5181399;28;20037;-67
2023/09/26 23:32:56;;;;;;;10.30;7.82;;;15.70;99.90;;;;;;5202036;28;20233;-64
2023/09/26 23:35:27;;;;;;;12.50;7.13;;;15.70;99.90;;;;;;5154640;28;20045;-66
2023/09/26 23:37:59;;;;;;;10.45;7.50;;;15.70;99.90;;;;;;5197808;28;20029;-64
2023/09/26 23:40:31;;;;;;;9.90;7.20;;;15.70;99.90;;;;;;5203298;28;20075;-68
2023/09/26 23:43:03;;;;;;;13.20;8.07;;;15.70;99.90;;;;;;5185106;28;20049;-68
2023/09/26 23:45:37;;;;;;;11.20;8.50;;;15.70;99.90;;;;;;5182379;28;20045;-66